Time;durP1;ratioP1;P1;durP2;ratioP2;P2;SDS_P1;SDS_P2;PMS_P1;PMS_P2;Temp;Humidity;BMP_temperature;BMP_pressure;BME280_temperature;BME280_humidity;BME280_pressure;Samples;Min_cycle;Max_cycle;Signal;HPM_P1;HPM_P2
2024/04/08 00:01:45;;;;;;;6.63;2.80;;;18.80;99.90;;;;;;4195413;28;20257;-78
2024/04/08 00:03:46;;;;;;;7.70;2.77;;;18.80;99.90;;;;;;4200348;28;20259;-79
2024/04/08 00:05:48;;;;;;;6.90;2.50;;;18.80;99.90;;;;;;4214944;28;20266;-79
2024/04/08 00:07:51;;;;;;;6.10;2.60;;;18.80;99.90;;;;;;4218435;28;20630;-79
2024/04/08 00:09:53;;;;;;;4.93;2.77;;;18.80;99.90;;;;;;4214402;28;20251;-79
2024/04/08 00:11:54;;;;;;;5.93;2.53;;;18.80;99.90;;;;;;4215221;28;20748;-79
2024/04/08 00:13:57;;;;;;;4.40;2.37;;;18.70;99.90;;;;;;4218646;28;20201;-79
2024/04/08 00:15:58;;;;;;;5.93;2.50;;;18.70;99.90;;;;;;4198666;28;20924;-79
2024/04/08 00:18:01;;;;;;;3.43;1.93;;;18.70;99.90;;;;;;4214452;28;20555;-79
2024/04/08 00:20:03;;;;;;;2.60;2.03;;;18.60;99.90;;;;;;4216035;28;20296;-79
2024/04/08 00:22:05;;;;;;;4.70;2.37;;;18.60;99.90;;;;;;4194847;28;20828;-79
2024/04/08 00:24:06;;;;;;;6.30;2.20;;;18.60;99.90;;;;;;4216539;28;20716;-79
2024/04/08 00:26:07;;;;;;;5.60;1.90;;;18.50;99.90;;;;;;4195486;28;20248;-79
2024/04/08 00:28:10;;;;;;;3.67;1.90;;;18.50;99.90;;;;;;4214162;28;20207;-79
2024/04/08 00:30:13;;;;;;;4.07;1.87;;;18.50;99.90;;;;;;4198748;28;20202;-79
2024/04/08 00:32:14;;;;;;;5.13;2.00;;;18.50;99.90;;;;;;4217383;28;20773;-79
2024/04/08 00:34:16;;;;;;;5.53;1.93;;;18.50;99.90;;;;;;4211552;28;20201;-78
2024/04/08 00:36:19;;;;;;;4.90;2.10;;;18.50;99.90;;;;;;4214835;28;20237;-79
2024/04/08 00:38:21;;;;;;;3.17;1.83;;;18.50;99.90;;;;;;4213650;28;20209;-79
2024/04/08 00:40:22;;;;;;;4.97;1.93;;;18.50;99.90;;;;;;4214424;28;20288;-79
2024/04/08 00:42:24;;;;;;;6.27;2.07;;;18.50;99.90;;;;;;4215971;28;20235;-78
2024/04/08 00:44:26;;;;;;;4.23;2.00;;;18.50;99.90;;;;;;4214623;28;20212;-78
2024/04/08 00:46:29;;;;;;;6.77;2.40;;;18.40;99.90;;;;;;4215676;28;20193;-79
2024/04/08 00:48:30;;;;;;;5.80;2.03;;;18.40;99.90;;;;;;4216297;28;20217;-79
2024/04/08 00:50:32;;;;;;;5.23;2.27;;;18.40;99.90;;;;;;4217258;28;20687;-79
2024/04/08 00:52:34;;;;;;;3.93;2.17;;;18.40;99.90;;;;;;4214199;28;20688;-78
2024/04/08 00:54:35;;;;;;;4.43;2.63;;;18.40;99.90;;;;;;4198343;28;20217;-79
2024/04/08 00:56:38;;;;;;;3.53;1.90;;;18.40;99.90;;;;;;4199685;28;20711;-79
2024/04/08 00:58:39;;;;;;;4.87;2.10;;;18.30;99.90;;;;;;4215734;28;20209;-79
2024/04/08 01:00:41;;;;;;;4.57;2.10;;;18.30;99.90;;;;;;4219015;28;20266;-78
2024/04/08 01:02:44;;;;;;;5.43;2.27;;;18.30;99.90;;;;;;4196545;28;20221;-79
2024/04/08 01:04:47;;;;;;;4.53;1.97;;;18.30;99.90;;;;;;4199335;28;20269;-79
2024/04/08 01:06:48;;;;;;;3.40;2.00;;;18.20;99.90;;;;;;4218388;28;20200;-79
2024/04/08 01:08:50;;;;;;;4.07;1.63;;;18.20;99.90;;;;;;4216878;28;20209;-78
2024/04/08 01:10:51;;;;;;;2.57;1.80;;;18.20;99.90;;;;;;4220947;28;20193;-79
2024/04/08 01:12:53;;;;;;;2.90;1.60;;;18.10;99.90;;;;;;4219303;28;20803;-79
2024/04/08 01:14:58;;;;;;;3.30;1.70;;;18.20;99.90;;;;;;4216082;28;20201;-79
2024/04/08 01:16:59;;;;;;;5.20;1.87;;;18.10;99.90;;;;;;4200910;28;20202;-79
2024/04/08 01:19:03;;;;;;;3.53;1.50;;;18.00;99.90;;;;;;4217569;28;20201;-79
2024/04/08 01:21:04;;;;;;;3.90;1.90;;;18.00;99.90;;;;;;4197436;28;20217;-79
2024/04/08 01:23:09;;;;;;;6.07;2.10;;;17.90;99.90;;;;;;4216033;28;20216;-79
2024/04/08 01:25:11;;;;;;;3.43;2.10;;;17.90;99.90;;;;;;4215478;28;20265;-79
2024/04/08 01:27:13;;;;;;;4.43;1.90;;;17.80;99.90;;;;;;4216563;28;20231;-79
2024/04/08 01:29:14;;;;;;;3.67;2.00;;;17.80;99.90;;;;;;4216666;28;20799;-79
2024/04/08 01:31:16;;;;;;;3.53;2.07;;;17.80;99.90;;;;;;4215787;28;20222;-79
2024/04/08 01:33:21;;;;;;;6.83;2.10;;;17.70;99.90;;;;;;4219894;28;20329;-79
2024/04/08 01:35:23;;;;;;;4.27;2.00;;;17.70;99.90;;;;;;4199499;28;20194;-79
2024/04/08 01:37:24;;;;;;;4.47;2.20;;;17.60;99.90;;;;;;4215709;28;20251;-79
2024/04/08 01:39:26;;;;;;;5.17;2.40;;;17.60;99.90;;;;;;4198722;28;20210;-79
2024/04/08 01:41:28;;;;;;;4.77;2.47;;;17.60;99.90;;;;;;4191306;28;20257;-79
2024/04/08 01:43:30;;;;;;;4.17;2.43;;;17.50;99.90;;;;;;4217297;28;20217;-79
2024/04/08 01:45:31;;;;;;;6.00;2.40;;;17.50;99.90;;;;;;4215485;28;20201;-78
2024/04/08 01:47:33;;;;;;;5.63;2.50;;;17.50;99.90;;;;;;4204628;28;20205;-79
2024/04/08 01:49:34;;;;;;;5.13;2.50;;;17.40;99.90;;;;;;4223362;28;20197;-79
2024/04/08 01:51:36;;;;;;;6.23;2.50;;;17.40;99.90;;;;;;4220296;28;20282;-79
2024/04/08 01:53:40;;;;;;;5.23;2.40;;;17.40;99.90;;;;;;4223433;28;20207;-79
2024/04/08 01:55:42;;;;;;;4.47;2.40;;;17.30;99.90;;;;;;4199580;28;20784;-79
2024/04/08 01:57:45;;;;;;;4.97;2.60;;;17.30;99.90;;;;;;4220356;28;20225;-78
2024/04/08 01:59:47;;;;;;;6.33;2.60;;;17.30;99.90;;;;;;4220315;28;20253;-79
2024/04/08 02:01:48;;;;;;;4.70;2.67;;;17.20;99.90;;;;;;4216517;28;20248;-79
2024/04/08 02:03:49;;;;;;;5.20;2.83;;;17.20;99.90;;;;;;4218775;28;20728;-79
2024/04/08 02:05:50;;;;;;;4.43;2.83;;;17.20;99.90;;;;;;4190219;28;20202;-78
2024/04/08 02:07:52;;;;;;;6.17;2.63;;;17.20;99.90;;;;;;4200982;28;20258;-79
2024/04/08 02:09:53;;;;;;;6.23;2.23;;;17.20;99.90;;;;;;4217480;28;20270;-79
2024/04/08 02:11:55;;;;;;;4.83;2.60;;;17.10;99.90;;;;;;4216042;28;20925;-79
2024/04/08 02:13:58;;;;;;;5.23;2.77;;;17.10;99.90;;;;;;4217815;28;20209;-79
2024/04/08 02:16:00;;;;;;;5.73;2.97;;;17.10;99.90;;;;;;4217886;28;20563;-79
2024/04/08 02:18:00;;;;;;;3.97;2.10;;;17.00;99.90;;;;;;4216676;28;20213;-79
2024/04/08 02:20:03;;;;;;;5.27;2.40;;;17.00;99.90;;;;;;4198656;28;20217;-78
2024/04/08 02:22:04;;;;;;;5.60;2.70;;;17.00;99.90;;;;;;4216299;28;20277;-78
2024/04/08 02:24:06;;;;;;;5.53;2.73;;;17.00;99.90;;;;;;4204771;28;20201;-79
2024/04/08 02:26:07;;;;;;;5.87;2.27;;;16.90;99.90;;;;;;4226133;28;20250;-79
2024/04/08 02:28:09;;;;;;;5.87;2.30;;;16.90;99.90;;;;;;4220152;28;20249;-76
2024/04/08 02:30:11;;;;;;;6.70;2.30;;;16.80;99.90;;;;;;4207915;28;20266;-76
2024/04/08 02:32:13;;;;;;;5.00;2.63;;;16.80;99.90;;;;;;4206376;28;20236;-78
2024/04/08 02:34:17;;;;;;;4.83;2.43;;;16.80;99.90;;;;;;4209981;28;20692;-76
2024/04/08 02:36:18;;;;;;;3.87;2.40;;;16.80;99.90;;;;;;4211974;28;20186;-78
2024/04/08 02:38:21;;;;;;;5.50;2.50;;;16.70;99.90;;;;;;4212791;28;20354;-76
2024/04/08 02:40:22;;;;;;;5.30;2.50;;;16.70;99.90;;;;;;4208352;28;20200;-76
2024/04/08 02:42:24;;;;;;;4.17;2.50;;;16.70;99.90;;;;;;4209699;28;20220;-77
2024/04/08 02:44:25;;;;;;;4.67;2.70;;;16.70;99.90;;;;;;4212673;28;20679;-76
2024/04/08 02:46:28;;;;;;;4.10;2.60;;;16.70;99.90;;;;;;4209367;28;20193;-76
2024/04/08 02:48:29;;;;;;;4.63;2.53;;;16.70;99.90;;;;;;4211145;28;20253;-78
2024/04/08 02:50:31;;;;;;;5.90;2.77;;;16.70;99.90;;;;;;4211758;28;20254;-82
2024/04/08 02:52:32;;;;;;;6.33;2.80;;;16.70;99.90;;;;;;4211423;28;20229;-76
2024/04/08 02:54:33;;;;;;;5.17;2.70;;;16.80;99.90;;;;;;4207293;28;20266;-76
2024/04/08 02:56:35;;;;;;;4.43;2.30;;;16.70;99.90;;;;;;4211961;28;20209;-76
2024/04/08 02:58:37;;;;;;;4.90;2.90;;;16.70;99.90;;;;;;4211738;28;20669;-76
2024/04/08 03:00:38;;;;;;;4.57;2.50;;;16.70;99.90;;;;;;4208636;28;20236;-78
2024/04/08 03:02:45;;;;;;;5.37;2.43;;;16.80;99.90;;;;;;4211122;28;20244;-78
2024/04/08 03:04:46;;;;;;;5.23;2.73;;;16.70;99.90;;;;;;4219745;28;20205;-78
2024/04/08 03:06:47;;;;;;;5.93;2.53;;;16.70;99.90;;;;;;4217207;28;20297;-77
2024/04/08 03:08:49;;;;;;;4.37;2.13;;;16.70;99.90;;;;;;4225198;28;20267;-79
2024/04/08 03:10:58;;;;;;;5.57;2.40;;;16.70;99.90;;;;;;4202837;28;20233;-79
2024/04/08 03:12:58;;;;;;;3.97;2.40;;;16.70;99.90;;;;;;4216050;28;20644;-80
2024/04/08 03:15:00;;;;;;;3.93;2.10;;;16.70;99.90;;;;;;4215235;28;20293;-79
2024/04/08 03:17:02;;;;;;;3.43;2.20;;;16.60;99.90;;;;;;4215309;28;20684;-79
2024/04/08 03:19:06;;;;;;;4.63;2.90;;;16.60;99.90;;;;;;4213370;28;20757;-79
2024/04/08 03:21:07;;;;;;;3.90;2.67;;;16.60;99.90;;;;;;4192830;28;20646;-79
2024/04/08 03:23:09;;;;;;;5.03;2.40;;;16.60;99.90;;;;;;4196903;28;20197;-79
2024/04/08 03:25:10;;;;;;;7.10;2.80;;;16.60;99.90;;;;;;4216325;28;20208;-79
2024/04/08 03:27:12;;;;;;;5.00;2.43;;;16.60;99.90;;;;;;4212364;28;20707;-79
2024/04/08 03:29:16;;;;;;;5.33;2.63;;;16.60;99.90;;;;;;4211903;28;20563;-79
2024/04/08 03:31:18;;;;;;;5.63;2.70;;;16.60;99.90;;;;;;4213403;28;20224;-79
2024/04/08 03:33:20;;;;;;;5.53;2.43;;;16.50;99.90;;;;;;4216725;28;20213;-79
2024/04/08 03:35:24;;;;;;;5.67;2.73;;;16.50;99.90;;;;;;4197835;28;20209;-79
2024/04/08 03:37:26;;;;;;;4.27;2.50;;;16.50;99.90;;;;;;4212035;28;20204;-79
2024/04/08 03:39:28;;;;;;;5.20;2.40;;;16.50;99.90;;;;;;4211903;28;20208;-79
2024/04/08 03:41:29;;;;;;;6.30;2.97;;;16.50;99.90;;;;;;4195986;28;20292;-79
2024/04/08 03:43:31;;;;;;;9.20;3.23;;;16.50;99.90;;;;;;4212958;28;20204;-79
2024/04/08 03:45:32;;;;;;;6.20;3.33;;;16.50;99.90;;;;;;4213550;28;20232;-79
2024/04/08 03:47:34;;;;;;;6.17;2.90;;;16.50;99.90;;;;;;4214546;28;20193;-79
2024/04/08 03:49:35;;;;;;;6.33;2.97;;;16.50;99.90;;;;;;4218322;28;20301;-79
2024/04/08 03:51:40;;;;;;;5.27;2.90;;;16.40;99.90;;;;;;4218993;28;20830;-79
2024/04/08 03:53:41;;;;;;;5.00;3.00;;;16.40;99.90;;;;;;4226239;28;20655;-79
2024/04/08 03:55:43;;;;;;;4.17;2.90;;;16.40;99.90;;;;;;4232098;28;20200;-80
2024/04/08 03:57:44;;;;;;;3.87;2.57;;;16.40;99.90;;;;;;4220879;28;20205;-78
2024/04/08 03:59:46;;;;;;;7.43;3.37;;;16.40;99.90;;;;;;4227803;28;20212;-80
2024/04/08 04:01:47;;;;;;;5.70;2.87;;;16.30;99.90;;;;;;4227118;28;20316;-77
2024/04/08 04:03:49;;;;;;;5.57;3.10;;;16.30;99.90;;;;;;4233592;28;20204;-78
2024/04/08 04:05:50;;;;;;;5.83;2.90;;;16.30;99.90;;;;;;4211169;28;20204;-79
2024/04/08 04:07:56;;;;;;;7.23;3.23;;;16.30;99.90;;;;;;4225301;28;20208;-79
2024/04/08 04:10:04;;;;;;;6.60;3.20;;;16.30;99.90;;;;;;4220843;28;20593;-78
2024/04/08 04:12:06;;;;;;;5.20;3.10;;;16.30;99.90;;;;;;4217486;28;20300;-79
2024/04/08 04:14:07;;;;;;;6.73;2.97;;;16.30;99.90;;;;;;4215333;28;20569;-79
2024/04/08 04:16:09;;;;;;;7.40;3.67;;;16.20;99.90;;;;;;4217051;28;20200;-79
2024/04/08 04:18:10;;;;;;;8.93;3.37;;;16.30;99.90;;;;;;4213838;28;20308;-79
2024/04/08 04:20:15;;;;;;;6.80;3.00;;;16.20;99.90;;;;;;4196440;28;20209;-79
2024/04/08 04:22:16;;;;;;;8.17;3.13;;;16.20;99.90;;;;;;4215794;28;20295;-78
2024/04/08 04:24:22;;;;;;;5.47;2.43;;;16.20;99.90;;;;;;4216987;28;20203;-77
2024/04/08 04:26:23;;;;;;;5.23;2.80;;;16.20;99.90;;;;;;4215080;28;20478;-77
2024/04/08 04:28:25;;;;;;;6.37;2.50;;;16.10;99.90;;;;;;4214659;28;20263;-77
2024/04/08 04:30:26;;;;;;;5.17;2.67;;;16.10;99.90;;;;;;4217090;28;20601;-79
2024/04/08 04:32:29;;;;;;;5.33;2.37;;;16.10;99.90;;;;;;4217151;28;20215;-79
2024/04/08 04:34:30;;;;;;;5.03;2.57;;;16.00;99.90;;;;;;4217186;28;20217;-79
2024/04/08 04:36:31;;;;;;;4.83;2.30;;;16.00;99.90;;;;;;4211893;28;20264;-78
2024/04/08 04:38:32;;;;;;;7.57;2.60;;;16.00;99.90;;;;;;4190853;28;20209;-78
2024/04/08 04:40:36;;;;;;;5.83;2.50;;;16.00;99.90;;;;;;4213196;28;20684;-77
2024/04/08 04:42:37;;;;;;;5.10;2.07;;;16.00;99.90;;;;;;4211212;28;20720;-77
2024/04/08 04:44:38;;;;;;;4.90;2.60;;;16.00;99.90;;;;;;4217588;28;20191;-78
2024/04/08 04:46:39;;;;;;;5.57;2.90;;;16.00;99.90;;;;;;4210534;28;20203;-78
2024/04/08 04:48:41;;;;;;;5.03;2.10;;;16.00;99.90;;;;;;4214202;28;20211;-76
2024/04/08 04:50:42;;;;;;;5.50;2.13;;;16.00;99.90;;;;;;4212717;28;21731;-80
2024/04/08 04:52:44;;;;;;;4.73;2.50;;;16.00;99.90;;;;;;4198088;28;20312;-77
2024/04/08 04:54:45;;;;;;;4.40;2.10;;;16.00;99.90;;;;;;4209408;28;20204;-79
2024/04/08 04:56:48;;;;;;;7.20;2.80;;;16.00;99.90;;;;;;4217382;28;20299;-79
2024/04/08 04:58:49;;;;;;;7.13;2.73;;;16.00;99.90;;;;;;4210942;28;20235;-77
2024/04/08 05:00:52;;;;;;;4.83;2.20;;;16.00;99.90;;;;;;4211841;28;20561;-79
2024/04/08 05:02:53;;;;;;;5.53;2.40;;;16.10;99.90;;;;;;4208332;28;20225;-78
2024/04/08 05:04:56;;;;;;;6.27;2.73;;;16.10;99.90;;;;;;4199271;28;20989;-79
2024/04/08 05:06:57;;;;;;;5.83;2.80;;;16.20;99.90;;;;;;4214526;28;20216;-79
2024/04/08 05:08:59;;;;;;;6.63;2.90;;;16.20;99.90;;;;;;4208668;28;20205;-78
2024/04/08 05:11:00;;;;;;;8.27;2.47;;;16.30;99.90;;;;;;4194648;28;20209;-79
2024/04/08 05:13:04;;;;;;;8.60;2.50;;;16.30;99.90;;;;;;4208625;28;20242;-78
2024/04/08 05:15:05;;;;;;;6.40;2.63;;;16.30;99.90;;;;;;4212140;28;20211;-78
2024/04/08 05:17:07;;;;;;;7.03;2.20;;;16.30;99.90;;;;;;4211928;28;20694;-79
2024/04/08 05:19:11;;;;;;;8.37;2.60;;;16.30;99.90;;;;;;4185447;28;20718;-78
2024/04/08 05:21:13;;;;;;;4.80;2.47;;;16.30;99.90;;;;;;4207216;28;20311;-78
2024/04/08 05:23:20;;;;;;;9.17;2.33;;;16.40;99.90;;;;;;4208078;28;20212;-86
2024/04/08 05:25:25;;;;;;;4.80;2.40;;;16.40;99.90;;;;;;4223075;28;20651;-76
2024/04/08 05:27:26;;;;;;;6.77;2.30;;;16.40;99.90;;;;;;4213263;28;20227;-77
2024/04/08 05:29:29;;;;;;;11.57;2.70;;;16.40;99.90;;;;;;4208466;28;20279;-79
2024/04/08 05:31:30;;;;;;;5.17;2.40;;;16.50;99.90;;;;;;4210841;28;20239;-79
2024/04/08 05:33:33;;;;;;;4.83;2.30;;;16.50;99.90;;;;;;4208905;28;20221;-80
2024/04/08 05:35:34;;;;;;;6.80;2.67;;;16.50;99.90;;;;;;4211852;28;20599;-78
2024/04/08 05:37:38;;;;;;;13.50;3.23;;;16.60;99.90;;;;;;4212152;28;20196;-79
2024/04/08 05:39:39;;;;;;;8.67;2.73;;;16.60;99.90;;;;;;4193829;28;20206;-78
2024/04/08 05:41:41;;;;;;;10.53;2.90;;;16.70;99.90;;;;;;4211422;28;20664;-78
2024/04/08 05:43:42;;;;;;;9.33;3.13;;;16.70;99.90;;;;;;4195256;28;20230;-78
2024/04/08 05:45:47;;;;;;;8.10;3.10;;;16.70;99.90;;;;;;4213679;28;20196;-77
2024/04/08 05:47:54;;;;;;;15.27;3.70;;;16.70;99.90;;;;;;4209120;28;20201;-77
2024/04/08 05:49:55;;;;;;;5.80;2.80;;;16.70;99.90;;;;;;4212144;28;20224;-76
2024/04/08 05:51:56;;;;;;;7.77;2.50;;;16.80;99.90;;;;;;4210870;28;20303;-76
2024/04/08 05:53:59;;;;;;;8.23;2.53;;;16.80;99.90;;;;;;4211968;28;20204;-77
2024/04/08 05:56:00;;;;;;;9.47;2.70;;;16.80;99.90;;;;;;4212906;28;20311;-79
2024/04/08 05:58:03;;;;;;;6.70;2.50;;;16.80;99.90;;;;;;4213019;28;20195;-77
2024/04/08 06:00:05;;;;;;;5.73;2.50;;;16.80;99.90;;;;;;4195141;28;20209;-78
2024/04/08 06:02:10;;;;;;;5.63;2.70;;;16.80;99.90;;;;;;4210665;28;20263;-78
2024/04/08 06:04:11;;;;;;;8.90;2.60;;;16.80;99.90;;;;;;4212009;28;20231;-78
2024/04/08 06:06:17;;;;;;;9.63;2.80;;;16.90;99.90;;;;;;4212018;28;20664;-79
2024/04/08 06:08:18;;;;;;;8.27;3.13;;;16.90;99.90;;;;;;4211259;28;20608;-79
2024/04/08 06:10:21;;;;;;;9.03;2.80;;;16.90;99.90;;;;;;4212111;28;20196;-77
2024/04/08 06:12:22;;;;;;;6.77;2.73;;;16.90;99.90;;;;;;4207218;28;20237;-78
2024/04/08 06:14:24;;;;;;;5.97;2.37;;;17.00;99.90;;;;;;4209020;28;20194;-78
2024/04/08 06:16:25;;;;;;;6.83;2.90;;;17.00;99.90;;;;;;4205296;28;20271;-77
2024/04/08 06:18:29;;;;;;;10.50;2.97;;;17.00;99.90;;;;;;4210010;28;20190;-78
2024/04/08 06:20:30;;;;;;;5.73;2.50;;;17.10;99.90;;;;;;4209269;28;20620;-77
2024/04/08 06:22:33;;;;;;;6.60;2.90;;;17.10;99.90;;;;;;4198579;28;20229;-78
2024/04/08 06:24:34;;;;;;;8.60;2.87;;;17.10;99.90;;;;;;4210502;28;20254;-77
2024/04/08 06:26:36;;;;;;;13.50;3.70;;;17.10;99.90;;;;;;4208728;28;20201;-77
2024/04/08 06:28:37;;;;;;;9.57;3.30;;;17.20;99.90;;;;;;4209923;28;20221;-76
2024/04/08 06:30:39;;;;;;;13.67;4.23;;;17.20;99.90;;;;;;4202464;28;20197;-77
2024/04/08 06:32:41;;;;;;;10.20;3.97;;;17.30;99.90;;;;;;4208770;28;20664;-77
2024/04/08 06:34:44;;;;;;;7.13;3.13;;;17.30;99.90;;;;;;4211110;28;20199;-77
2024/04/08 06:36:45;;;;;;;7.80;3.37;;;17.40;99.90;;;;;;4205786;28;20208;-77
2024/04/08 06:38:47;;;;;;;16.07;3.73;;;17.40;99.90;;;;;;4194467;28;20201;-77
2024/04/08 06:40:48;;;;;;;6.50;3.50;;;17.40;99.90;;;;;;4211673;28;20228;-77
2024/04/08 06:42:50;;;;;;;13.10;4.10;;;17.50;99.90;;;;;;4210129;28;20213;-79
2024/04/08 06:44:52;;;;;;;13.30;4.30;;;17.50;99.90;;;;;;4212050;28;20283;-77
2024/04/08 06:46:54;;;;;;;13.30;4.87;;;17.50;99.90;;;;;;4208440;28;20196;-77
2024/04/08 06:48:55;;;;;;;20.80;5.20;;;17.50;99.90;;;;;;4208298;28;20208;-77
2024/04/08 06:50:59;;;;;;;11.93;5.10;;;17.60;99.90;;;;;;4207297;28;20205;-76
2024/04/08 06:53:00;;;;;;;14.17;4.97;;;17.60;99.90;;;;;;4211518;28;20225;-77
2024/04/08 06:55:02;;;;;;;8.60;4.20;;;17.60;99.90;;;;;;4217506;28;20208;-77
2024/04/08 06:57:05;;;;;;;6.93;3.33;;;17.60;99.90;;;;;;4206773;28;20722;-76
2024/04/08 06:59:07;;;;;;;9.33;4.27;;;17.60;99.90;;;;;;4210962;28;20224;-77
2024/04/08 07:01:08;;;;;;;9.63;4.20;;;17.60;99.90;;;;;;4212784;28;20197;-78
2024/04/08 07:03:10;;;;;;;7.83;3.47;;;17.60;99.90;;;;;;4195739;28;20240;-76
2024/04/08 07:05:11;;;;;;;7.67;3.30;;;17.60;99.90;;;;;;4190188;28;20218;-77
2024/04/08 07:07:14;;;;;;;10.53;4.00;;;17.60;99.90;;;;;;4213407;28;20652;-79
2024/04/08 07:09:15;;;;;;;11.17;4.10;;;17.70;99.90;;;;;;4196046;28;20206;-78
2024/04/08 07:11:17;;;;;;;8.63;3.80;;;17.70;99.90;;;;;;4208024;28;20232;-77
2024/04/08 07:13:18;;;;;;;6.83;3.60;;;17.80;99.90;;;;;;4215366;28;20229;-80
2024/04/08 07:15:20;;;;;;;9.90;3.43;;;17.90;99.90;;;;;;4215302;28;20193;-78
2024/04/08 07:17:24;;;;;;;9.00;4.20;;;17.90;99.90;;;;;;4211495;28;20259;-77
2024/04/08 07:19:26;;;;;;;7.67;3.60;;;18.00;99.90;;;;;;4211755;28;20204;-77
2024/04/08 07:21:27;;;;;;;6.20;3.83;;;18.00;99.90;;;;;;4204348;28;20245;-77
2024/04/08 07:23:30;;;;;;;10.50;4.37;;;18.10;99.90;;;;;;4215004;28;20221;-78
2024/04/08 07:25:31;;;;;;;9.33;4.10;;;18.10;99.90;;;;;;4215368;28;20228;-79
2024/04/08 07:27:35;;;;;;;8.13;3.83;;;18.20;99.90;;;;;;4196716;28;20202;-78
2024/04/08 07:29:36;;;;;;;7.63;3.67;;;18.20;99.90;;;;;;4212490;28;20209;-77
2024/04/08 07:31:38;;;;;;;5.83;3.53;;;18.20;99.90;;;;;;4205651;28;20632;-79
2024/04/08 07:33:39;;;;;;;8.53;3.77;;;18.20;99.90;;;;;;4196800;28;20760;-77
2024/04/08 07:35:41;;;;;;;5.97;3.37;;;18.20;99.90;;;;;;4208424;28;20205;-78
2024/04/08 07:37:43;;;;;;;6.47;3.20;;;18.20;99.90;;;;;;4213406;28;20930;-79
2024/04/08 07:39:46;;;;;;;6.67;3.50;;;18.30;99.90;;;;;;4214461;28;20223;-78
2024/04/08 07:41:47;;;;;;;6.33;3.60;;;18.30;99.90;;;;;;4196372;28;20225;-77
2024/04/08 07:43:49;;;;;;;7.77;3.57;;;18.30;99.90;;;;;;4216004;28;20256;-78
2024/04/08 07:45:50;;;;;;;6.97;3.80;;;18.40;99.90;;;;;;4215303;28;20261;-78
2024/04/08 07:47:52;;;;;;;7.60;3.57;;;18.40;99.90;;;;;;4215513;28;20193;-78
2024/04/08 07:49:56;;;;;;;9.57;4.33;;;18.50;99.90;;;;;;4217702;28;20242;-78
2024/04/08 07:51:57;;;;;;;8.73;4.20;;;18.50;99.90;;;;;;4215632;28;20384;-78
2024/04/08 07:53:58;;;;;;;9.23;4.10;;;18.50;99.90;;;;;;4215044;28;20225;-79
2024/04/08 07:56:02;;;;;;;8.17;4.27;;;18.50;99.90;;;;;;4211472;28;20208;-77
2024/04/08 07:58:03;;;;;;;7.97;3.70;;;18.50;99.90;;;;;;4213205;28;20268;-79
2024/04/08 08:00:07;;;;;;;8.23;4.13;;;18.50;99.90;;;;;;4191428;28;20236;-78
2024/04/08 08:02:08;;;;;;;12.07;4.07;;;18.50;99.90;;;;;;4212977;28;20603;-78
2024/04/08 08:04:10;;;;;;;10.33;4.03;;;18.60;99.90;;;;;;4213730;28;20253;-77
2024/04/08 08:06:11;;;;;;;8.40;4.10;;;18.60;99.90;;;;;;4194782;28;20233;-77
2024/04/08 08:08:13;;;;;;;8.43;3.80;;;18.70;99.90;;;;;;4218681;28;20201;-77
2024/04/08 08:10:15;;;;;;;10.27;3.80;;;18.80;99.90;;;;;;4209427;28;20209;-77
2024/04/08 08:12:18;;;;;;;7.73;3.80;;;18.90;99.90;;;;;;4211548;28;20213;-78
2024/04/08 08:14:19;;;;;;;6.67;3.63;;;19.00;99.90;;;;;;4189302;28;20236;-77
2024/04/08 08:16:21;;;;;;;6.80;3.60;;;19.10;99.90;;;;;;4211870;28;20201;-77
2024/04/08 08:18:23;;;;;;;11.53;4.10;;;19.20;99.90;;;;;;4213977;28;20565;-77
2024/04/08 08:20:25;;;;;;;9.70;3.87;;;19.30;99.90;;;;;;4213700;28;20304;-79
2024/04/08 08:22:26;;;;;;;8.60;3.50;;;19.40;99.90;;;;;;4212607;28;20228;-79
2024/04/08 08:24:28;;;;;;;10.50;3.43;;;19.60;99.90;;;;;;4212487;28;20666;-78
2024/04/08 08:26:32;;;;;;;9.23;3.87;;;19.70;99.90;;;;;;4215290;28;20243;-77
2024/04/08 08:28:35;;;;;;;7.50;3.57;;;19.80;99.90;;;;;;4211952;28;20221;-77
2024/04/08 08:30:36;;;;;;;11.93;4.07;;;19.90;99.90;;;;;;4211821;28;20240;-78
2024/04/08 08:32:38;;;;;;;10.23;4.07;;;20.00;99.90;;;;;;4209737;28;20219;-77
2024/04/08 08:34:39;;;;;;;10.83;3.60;;;20.00;99.90;;;;;;4184495;28;20212;-78
2024/04/08 08:36:41;;;;;;;8.50;3.73;;;20.10;99.90;;;;;;4211473;28;20664;-80
2024/04/08 08:38:42;;;;;;;13.13;3.67;;;20.10;99.90;;;;;;4213017;28;20217;-79
2024/04/08 08:40:45;;;;;;;9.80;3.67;;;20.10;99.90;;;;;;4204352;28;20241;-77
2024/04/08 08:42:50;;;;;;;9.20;3.50;;;20.10;99.90;;;;;;4212989;28;20562;-77
2024/04/08 08:44:55;;;;;;;10.47;3.80;;;20.10;99.90;;;;;;4209908;28;20205;-78
2024/04/08 08:46:58;;;;;;;8.23;3.80;;;20.10;99.90;;;;;;4209109;28;20219;-78
2024/04/08 08:49:02;;;;;;;9.97;3.30;;;20.00;99.90;;;;;;4213437;28;20660;-79
2024/04/08 08:51:08;;;;;;;8.27;3.30;;;20.00;99.90;;;;;;4211030;28;20203;-76
2024/04/08 08:53:10;;;;;;;8.23;3.70;;;20.00;99.90;;;;;;4194797;28;20197;-77
2024/04/08 08:55:11;;;;;;;9.67;3.50;;;20.10;99.90;;;;;;4194064;28;20209;-77
2024/04/08 08:57:13;;;;;;;12.27;3.33;;;20.10;99.90;;;;;;4203769;28;20852;-77
2024/04/08 08:59:15;;;;;;;12.97;3.27;;;20.20;99.90;;;;;;4192964;28;20801;-78
2024/04/08 09:01:18;;;;;;;11.03;2.70;;;20.20;99.90;;;;;;4206463;28;20245;-78
2024/04/08 09:03:21;;;;;;;8.40;2.53;;;20.30;99.90;;;;;;4213291;28;20227;-77
2024/04/08 09:05:24;;;;;;;10.20;2.57;;;20.30;99.90;;;;;;4212628;28;20572;-77
2024/04/08 09:07:25;;;;;;;9.10;2.60;;;20.30;99.90;;;;;;4211129;28;20575;-79
2024/04/08 09:09:27;;;;;;;9.77;2.90;;;20.50;99.90;;;;;;4211468;28;20222;-79
2024/04/08 09:11:28;;;;;;;10.43;2.70;;;20.60;99.90;;;;;;4214377;28;20248;-79
2024/04/08 09:13:32;;;;;;;14.70;2.80;;;20.70;99.90;;;;;;4215003;28;20780;-80
2024/04/08 09:15:36;;;;;;;8.37;2.60;;;20.80;99.90;;;;;;4216872;28;20209;-80
2024/04/08 09:17:39;;;;;;;15.07;3.70;;;20.90;99.90;;;;;;4216507;28;20197;-79
2024/04/08 09:19:40;;;;;;;8.00;2.97;;;21.00;99.90;;;;;;4200724;28;20208;-80
2024/04/08 09:21:43;;;;;;;11.17;2.50;;;21.00;99.90;;;;;;4216793;28;20304;-79
2024/04/08 09:23:48;;;;;;;12.00;2.93;;;21.10;99.90;;;;;;4213920;28;20244;-79
2024/04/08 09:25:50;;;;;;;13.10;3.27;;;21.20;99.90;;;;;;4215980;28;20588;-80
2024/04/08 09:27:51;;;;;;;9.13;2.67;;;21.20;99.90;;;;;;4214255;28;20194;-79
2024/04/08 09:29:53;;;;;;;11.03;2.37;;;21.30;99.90;;;;;;4198096;28;20212;-78
2024/04/08 09:31:54;;;;;;;12.03;3.33;;;21.40;99.90;;;;;;4216214;28;20262;-78
2024/04/08 09:33:57;;;;;;;10.60;2.70;;;21.40;99.90;;;;;;4194182;28;20209;-79
2024/04/08 09:35:58;;;;;;;11.03;2.73;;;21.50;99.90;;;;;;4213822;28;20208;-82
2024/04/08 09:38:00;;;;;;;9.67;2.70;;;21.50;99.90;;;;;;4207299;28;20213;-84
2024/04/08 09:40:04;;;;;;;10.93;2.67;;;21.60;99.90;;;;;;4210104;28;20277;-75
2024/04/08 09:42:09;;;;;;;12.17;2.60;;;21.80;99.90;;;;;;4220251;28;20221;-76
2024/04/08 09:44:17;;;;;;;11.93;3.10;;;22.00;99.90;;;;;;4225384;28;20284;-76
2024/04/08 09:46:19;;;;;;;10.57;2.50;;;22.10;99.90;;;;;;4206464;28;20193;-77
2024/04/08 09:48:21;;;;;;;9.43;3.00;;;22.30;99.90;;;;;;4223885;28;20213;-77
2024/04/08 09:50:28;;;;;;;8.63;2.70;;;22.30;99.90;;;;;;4210444;28;20312;-77
2024/04/08 09:52:30;;;;;;;9.63;2.63;;;22.40;99.90;;;;;;4223329;28;20304;-78
2024/04/08 09:54:31;;;;;;;10.63;2.63;;;22.50;99.90;;;;;;4211855;28;20216;-78
2024/04/08 09:56:35;;;;;;;9.63;2.37;;;22.60;99.90;;;;;;4212656;28;20212;-77
2024/04/08 09:58:40;;;;;;;7.20;2.50;;;22.60;99.90;;;;;;4218107;28;20193;-77
2024/04/08 10:00:45;;;;;;;14.63;2.80;;;22.70;99.90;;;;;;4214193;28;20228;-79
2024/04/08 10:02:50;;;;;;;12.57;2.50;;;22.80;99.90;;;;;;4210808;28;20285;-78
2024/04/08 10:04:56;;;;;;;8.20;2.40;;;22.90;99.90;;;;;;4216488;28;20792;-78
2024/04/08 10:07:04;;;;;;;14.17;2.70;;;23.00;99.90;;;;;;4211157;28;20189;-78
2024/04/08 10:09:05;;;;;;;10.67;2.43;;;23.10;99.90;;;;;;4211072;28;20200;-77
2024/04/08 10:11:08;;;;;;;11.07;2.33;;;23.10;99.90;;;;;;4211664;28;20296;-77
2024/04/08 10:13:10;;;;;;;7.03;2.63;;;23.30;99.90;;;;;;4214506;28;20193;-78
2024/04/08 10:15:12;;;;;;;11.10;2.53;;;23.40;92.90;;;;;;4211094;28;20228;-78
2024/04/08 10:17:13;;;;;;;15.40;2.33;;;23.50;91.60;;;;;;4215000;28;20208;-77
2024/04/08 10:19:16;;;;;;;8.27;2.00;;;23.70;87.10;;;;;;4210091;28;20208;-79
2024/04/08 10:21:18;;;;;;;8.47;2.43;;;23.80;77.00;;;;;;4205664;28;20812;-76
2024/04/08 10:23:22;;;;;;;14.47;2.27;;;23.90;79.60;;;;;;4212678;28;20256;-77
2024/04/08 10:25:35;;;;;;;8.97;2.33;;;24.00;78.80;;;;;;4200747;28;20210;-76
2024/04/08 10:27:38;;;;;;;8.00;2.23;;;24.20;74.00;;;;;;4224984;28;20223;-78
2024/04/08 10:29:40;;;;;;;13.80;2.43;;;24.30;72.20;;;;;;4225160;28;20216;-76
2024/04/08 10:31:42;;;;;;;13.40;2.23;;;24.40;73.70;;;;;;4218231;28;20243;-78
2024/04/08 10:33:43;;;;;;;14.53;2.40;;;24.40;74.10;;;;;;4197996;28;20193;-77
2024/04/08 10:35:46;;;;;;;7.07;2.23;;;24.50;78.70;;;;;;4195036;28;20289;-77